createdAt,value
2017-03-26T00:00:06.634Z,9.3
2017-03-26T00:01:20.072Z,9.42
2017-03-26T00:02:33.743Z,9.37
2017-03-26T00:03:47.136Z,9.29
2017-03-26T00:05:00.758Z,9.31
2017-03-26T00:06:14.796Z,9.29
2017-03-26T00:07:28.412Z,9.36
2017-03-26T00:08:42.197Z,9.36
2017-03-26T00:09:55.788Z,9.31
2017-03-26T00:11:09.205Z,9.33
2017-03-26T00:12:22.857Z,9.29
2017-03-26T00:13:36.299Z,9.33
2017-03-26T00:14:50.035Z,9.34
2017-03-26T00:16:03.367Z,9.36
2017-03-26T00:17:17.040Z,9.37
2017-03-26T00:18:30.476Z,9.34
2017-03-26T00:19:44.448Z,9.33
2017-03-26T00:20:58.001Z,9.3
2017-03-26T00:22:11.908Z,9.29
2017-03-26T00:23:25.684Z,9.29
2017-03-26T00:24:39.445Z,9.33
2017-03-26T00:25:53.157Z,9.31
2017-03-26T00:27:06.746Z,9.31
2017-03-26T00:28:20.207Z,9.34
2017-03-26T00:29:33.827Z,9.33
2017-03-26T00:30:47.312Z,9.31
2017-03-26T00:32:00.735Z,9.21
2017-03-26T00:33:14.111Z,9.24
2017-03-26T00:34:27.649Z,9.24
2017-03-26T00:35:41.090Z,9.26
2017-03-26T00:36:55.114Z,9.31
2017-03-26T00:38:08.609Z,9.26
2017-03-26T00:39:22.234Z,9.29
2017-03-26T00:40:36.032Z,9.26
2017-03-26T00:41:50.038Z,9.3
2017-03-26T00:43:03.443Z,9.26
2017-03-26T00:44:17.099Z,9.29
2017-03-26T00:45:30.574Z,9.19
2017-03-26T00:46:44.688Z,9.22
2017-03-26T00:47:58.118Z,9.18
2017-03-26T00:49:11.709Z,9.22
2017-03-26T00:50:25.799Z,9.24
2017-03-26T00:51:39.660Z,9.26
2017-03-26T00:52:53.312Z,9.24
2017-03-26T00:54:06.851Z,9.18
2017-03-26T00:55:20.249Z,9.26
2017-03-26T00:56:33.982Z,9.19
2017-03-26T00:57:48.182Z,9.19
2017-03-26T00:59:01.732Z,9.22
2017-03-26T01:00:15.513Z,9.15
2017-03-26T01:01:31.325Z,9.18
2017-03-26T01:02:44.813Z,9.16
2017-03-26T01:03:58.824Z,9.13
2017-03-26T01:05:12.686Z,9.19
2017-03-26T01:06:26.474Z,9.13
2017-03-26T01:07:39.899Z,9.16
2017-03-26T01:08:53.866Z,9.22
2017-03-26T01:10:07.310Z,9.16
2017-03-26T01:11:20.805Z,9.24
2017-03-26T01:12:34.515Z,9.22
2017-03-26T01:13:48.683Z,9.26
2017-03-26T01:15:02.099Z,9.29
2017-03-26T01:16:16.426Z,9.22
2017-03-26T01:17:30.108Z,9.26
2017-03-26T01:18:43.754Z,9.16
2017-03-26T01:19:57.545Z,9.13
2017-03-26T01:21:11.710Z,9.21
2017-03-26T01:22:25.426Z,9.21
2017-03-26T01:23:39.299Z,9.18
2017-03-26T01:24:52.873Z,9.15
2017-03-26T01:26:06.395Z,9.15
2017-03-26T01:27:19.877Z,9.24
2017-03-26T01:28:34.016Z,9.18
2017-03-26T01:29:48.474Z,9.16
2017-03-26T01:31:02.204Z,9.16
2017-03-26T01:32:15.775Z,9.12
2017-03-26T01:33:29.671Z,9.19
2017-03-26T01:34:43.257Z,9.16
2017-03-26T01:35:57.396Z,9.21
2017-03-26T01:37:10.849Z,9.15
2017-03-26T01:38:24.681Z,9.19
2017-03-26T01:39:38.479Z,9.15
2017-03-26T01:40:52.436Z,9.19
2017-03-26T01:42:06.179Z,9.19
2017-03-26T01:43:19.698Z,9.15
2017-03-26T01:44:33.403Z,9.13
2017-03-26T01:45:46.906Z,9.12
2017-03-26T01:47:00.512Z,9.03
2017-03-26T01:48:14.834Z,9.03
2017-03-26T01:49:28.232Z,9.11
2017-03-26T01:50:42.152Z,9.03
2017-03-26T01:51:55.552Z,9.11
2017-03-26T01:53:09.217Z,9.02
2017-03-26T01:54:22.670Z,9.05
2017-03-26T01:55:46.333Z,9.13
2017-03-26T01:56:59.876Z,9.03
2017-03-26T01:58:13.384Z,9.03
2017-03-26T01:59:26.767Z,9.03
2017-03-26T02:00:55.785Z,8.99
2017-03-26T02:02:10.350Z,9.03
2017-03-26T02:03:25.384Z,9.05
2017-03-26T02:04:39.571Z,9.03
2017-03-26T02:05:53.097Z,9.05
2017-03-26T02:07:06.891Z,8.95
2017-03-26T02:08:20.661Z,9.05
2017-03-26T02:09:34.294Z,8.92
2017-03-26T02:10:47.915Z,8.93
2017-03-26T02:12:01.968Z,8.9
2017-03-26T02:13:15.760Z,8.95
2017-03-26T02:14:29.899Z,8.78
2017-03-26T02:15:43.623Z,8.92
2017-03-26T02:16:58.182Z,8.95
2017-03-26T02:18:13.759Z,8.95
2017-03-26T02:19:27.567Z,8.84
2017-03-26T02:20:40.988Z,8.89
2017-03-26T02:21:54.535Z,8.74
2017-03-26T02:23:08.217Z,8.84
2017-03-26T02:24:21.752Z,8.77
2017-03-26T02:25:36.476Z,8.79
2017-03-26T02:26:50.228Z,8.79
2017-03-26T02:28:03.979Z,8.77
2017-03-26T02:29:17.796Z,8.78
2017-03-26T02:30:31.159Z,8.81
2017-03-26T02:31:45.025Z,8.75
2017-03-26T02:32:58.598Z,8.77
2017-03-26T02:34:12.186Z,8.74
2017-03-26T02:35:25.582Z,8.72
2017-03-26T02:36:39.206Z,8.64
2017-03-26T02:37:53.059Z,8.61
2017-03-26T02:39:06.861Z,8.61
2017-03-26T02:40:20.917Z,8.59
2017-03-26T02:41:34.452Z,8.63
2017-03-26T02:42:47.944Z,8.57
2017-03-26T02:44:02.117Z,8.6
2017-03-26T02:45:15.668Z,8.56
2017-03-26T02:46:29.271Z,8.6
2017-03-26T02:47:42.697Z,8.54
2017-03-26T02:48:56.670Z,8.45
2017-03-26T02:50:10.305Z,8.46
2017-03-26T02:51:23.742Z,8.42
2017-03-26T02:52:37.212Z,8.49
2017-03-26T02:53:50.996Z,8.42
2017-03-26T02:55:04.394Z,8.42
2017-03-26T02:56:18.509Z,8.45
2017-03-26T02:57:31.938Z,8.46
2017-03-26T02:58:45.640Z,8.44
2017-03-26T02:59:59.075Z,8.5
2017-03-26T03:01:12.777Z,8.44
2017-03-26T03:02:26.523Z,8.42
2017-03-26T03:03:40.082Z,8.49
2017-03-26T03:04:54.659Z,8.49
2017-03-26T03:06:08.180Z,8.35
2017-03-26T03:07:21.883Z,8.44
2017-03-26T03:08:35.682Z,8.49
2017-03-26T03:09:49.187Z,8.45
2017-03-26T03:11:03.012Z,8.44
2017-03-26T03:12:16.629Z,8.49
2017-03-26T03:13:30.139Z,8.49
2017-03-26T03:14:44.381Z,8.46
2017-03-26T03:15:57.976Z,8.45
2017-03-26T03:17:11.938Z,8.44
2017-03-26T03:18:26.064Z,8.52
2017-03-26T03:19:39.530Z,8.49
2017-03-26T03:20:54.320Z,8.42
2017-03-26T03:22:08.530Z,8.46
2017-03-26T03:23:22.098Z,8.46
2017-03-26T03:24:35.539Z,8.35
2017-03-26T03:25:49.117Z,8.34
2017-03-26T03:27:03.519Z,8.45
2017-03-26T03:28:17.037Z,8.32
2017-03-26T03:29:30.505Z,8.41
2017-03-26T03:30:44.564Z,8.34
2017-03-26T03:31:57.938Z,8.27
2017-03-26T03:33:11.992Z,8.38
2017-03-26T03:34:28.520Z,8.31
2017-03-26T03:35:42.025Z,8.2
2017-03-26T03:36:55.450Z,8.17
2017-03-26T03:38:09.307Z,8.27
2017-03-26T03:39:23.017Z,8.18
2017-03-26T03:40:36.733Z,8.17
2017-03-26T03:41:50.186Z,8.21
2017-03-26T03:43:04.051Z,8.14
2017-03-26T03:44:17.413Z,8.08
2017-03-26T03:45:32.525Z,8.09
2017-03-26T03:46:46.376Z,8.17
2017-03-26T03:47:59.940Z,8.05
2017-03-26T03:49:13.445Z,8.05
2017-03-26T03:50:26.914Z,8.03
2017-03-26T03:51:40.521Z,7.98
2017-03-26T03:52:54.192Z,8.03
2017-03-26T03:54:07.965Z,7.96
2017-03-26T03:55:21.648Z,7.98
2017-03-26T03:56:35.074Z,7.98
2017-03-26T03:57:48.980Z,7.95
2017-03-26T03:59:02.646Z,7.98
2017-03-26T04:00:16.215Z,7.9
2017-03-26T04:01:29.579Z,7.9
2017-03-26T04:02:43.172Z,7.91
2017-03-26T04:03:57.167Z,7.88
2017-03-26T04:05:10.884Z,7.84
2017-03-26T04:06:25.968Z,7.84
2017-03-26T04:07:39.524Z,7.84
2017-03-26T04:08:53.000Z,7.88
2017-03-26T04:10:07.683Z,7.93
2017-03-26T04:11:21.140Z,7.88
2017-03-26T04:12:34.957Z,7.83
2017-03-26T04:13:48.430Z,7.81
2017-03-26T04:15:01.912Z,7.85
2017-03-26T04:16:15.936Z,7.75
2017-03-26T04:17:29.533Z,7.78
2017-03-26T04:18:43.266Z,7.8
2017-03-26T04:19:56.843Z,7.81
2017-03-26T04:21:10.860Z,7.85
2017-03-26T04:22:24.699Z,7.75
2017-03-26T04:23:38.297Z,7.78
2017-03-26T04:24:51.913Z,7.77
2017-03-26T04:26:05.370Z,7.66
2017-03-26T04:27:18.936Z,7.81
2017-03-26T04:28:32.946Z,7.62
2017-03-26T04:29:47.012Z,7.64
2017-03-26T04:31:00.545Z,7.64
2017-03-26T04:32:14.223Z,7.7
2017-03-26T04:33:27.865Z,7.69
2017-03-26T04:34:41.849Z,7.66
2017-03-26T04:35:55.226Z,7.62
2017-03-26T04:37:08.885Z,7.59
2017-03-26T04:38:22.382Z,7.55
2017-03-26T04:39:35.998Z,7.61
2017-03-26T04:40:49.964Z,7.59
2017-03-26T04:42:04.373Z,7.56
2017-03-26T04:43:18.169Z,7.62
2017-03-26T04:44:31.753Z,7.55
2017-03-26T04:45:45.205Z,7.59
2017-03-26T04:46:59.567Z,7.59
2017-03-26T04:48:13.235Z,7.66
2017-03-26T04:49:26.883Z,7.58
2017-03-26T04:50:42.512Z,7.62
2017-03-26T04:51:56.256Z,7.56
2017-03-26T04:53:09.948Z,7.59
2017-03-26T04:54:23.441Z,7.62
2017-03-26T04:55:37.072Z,7.61
2017-03-26T04:56:50.610Z,7.62
2017-03-26T04:58:04.580Z,7.62
2017-03-26T04:59:18.932Z,7.64
2017-03-26T05:00:32.647Z,7.62
2017-03-26T05:01:46.288Z,7.56
2017-03-26T05:02:59.687Z,7.62
2017-03-26T05:04:14.432Z,7.59
2017-03-26T05:05:28.653Z,7.56
2017-03-26T05:06:42.254Z,7.58
2017-03-26T05:07:55.908Z,7.64
2017-03-26T05:09:09.985Z,7.56
2017-03-26T05:10:23.413Z,7.48
2017-03-26T05:11:37.697Z,7.46
2017-03-26T05:12:51.149Z,7.48
2017-03-26T05:14:04.943Z,7.39
2017-03-26T05:15:19.042Z,7.53
2017-03-26T05:16:32.525Z,7.53
2017-03-26T05:17:46.841Z,7.59
2017-03-26T05:19:00.478Z,7.55
2017-03-26T05:20:14.188Z,7.55
2017-03-26T05:21:27.677Z,7.58
2017-03-26T05:22:41.232Z,7.61
2017-03-26T05:23:55.606Z,7.66
2017-03-26T05:25:08.945Z,7.66
2017-03-26T05:26:22.391Z,7.62
2017-03-26T05:27:36.616Z,7.74
2017-03-26T05:28:50.708Z,7.67
2017-03-26T05:30:04.322Z,7.7
2017-03-26T05:31:17.810Z,7.78
2017-03-26T05:32:31.277Z,7.77
2017-03-26T05:33:45.269Z,7.78
2017-03-26T05:34:58.615Z,7.78
2017-03-26T05:36:12.579Z,7.74
2017-03-26T05:37:26.025Z,7.91
2017-03-26T05:38:56.649Z,7.88
2017-03-26T05:40:11.665Z,7.95
2017-03-26T05:41:25.803Z,7.84
2017-03-26T05:42:39.131Z,7.85
2017-03-26T05:43:53.605Z,7.98
2017-03-26T05:45:06.927Z,7.91
2017-03-26T05:46:21.228Z,7.93
2017-03-26T05:47:34.869Z,7.96
2017-03-26T05:48:48.504Z,7.95
2017-03-26T05:50:01.982Z,8.05
2017-03-26T05:51:16.368Z,8.02
2017-03-26T05:52:31.091Z,8.16
2017-03-26T05:53:44.818Z,8.14
2017-03-26T05:54:58.268Z,8.13
2017-03-26T05:56:20.970Z,8.18
2017-03-26T05:57:34.349Z,8.21
2017-03-26T05:58:47.894Z,8.28
2017-03-26T06:00:01.403Z,8.41
2017-03-26T06:01:35.256Z,8.44
2017-03-26T06:02:49.124Z,8.46
2017-03-26T06:04:02.607Z,8.53
2017-03-26T06:05:16.564Z,8.53
2017-03-26T06:06:29.989Z,8.59
2017-03-26T06:07:45.985Z,8.59
2017-03-26T06:08:59.735Z,8.61
2017-03-26T06:10:13.698Z,8.61
2017-03-26T06:11:27.105Z,8.68
2017-03-26T06:12:40.857Z,8.74
2017-03-26T06:13:54.347Z,8.79
2017-03-26T06:15:08.157Z,8.74
2017-03-26T06:16:22.155Z,8.81
2017-03-26T06:17:35.864Z,8.93
2017-03-26T06:18:49.481Z,8.96
2017-03-26T06:20:03.293Z,9
2017-03-26T06:21:17.079Z,8.97
2017-03-26T06:22:30.989Z,9.05
2017-03-26T06:23:44.933Z,9.03
2017-03-26T06:24:58.800Z,9.18
2017-03-26T06:26:13.403Z,9.19
2017-03-26T06:27:26.924Z,9.16
2017-03-26T06:28:40.341Z,9.24
2017-03-26T06:29:54.074Z,9.08
2017-03-26T06:31:07.514Z,9.13
2017-03-26T06:32:21.264Z,9.15
2017-03-26T06:33:34.722Z,9.26
2017-03-26T06:34:48.551Z,9.29
2017-03-26T06:36:02.345Z,9.29
2017-03-26T06:37:16.062Z,9.26
2017-03-26T06:38:29.501Z,9.27
2017-03-26T06:39:43.112Z,9.34
2017-03-26T06:40:56.853Z,9.3
2017-03-26T06:42:10.345Z,9.42
2017-03-26T06:43:23.918Z,9.37
2017-03-26T06:44:38.864Z,9.47
2017-03-26T06:45:52.315Z,9.42
2017-03-26T06:47:05.982Z,9.45
2017-03-26T06:48:19.532Z,9.47
2017-03-26T06:49:33.174Z,9.54
2017-03-26T06:50:46.571Z,9.59
2017-03-26T06:52:00.417Z,9.54
2017-03-26T06:53:14.267Z,9.56
2017-03-26T06:54:27.834Z,9.69
2017-03-26T06:55:41.375Z,9.67
2017-03-26T06:56:55.264Z,9.64
2017-03-26T06:58:09.161Z,9.77
2017-03-26T06:59:22.963Z,9.84
2017-03-26T07:00:36.947Z,9.9
2017-03-26T07:01:50.862Z,10.05
2017-03-26T07:03:04.315Z,10.05
2017-03-26T07:04:18.500Z,10
2017-03-26T07:05:32.210Z,9.97
2017-03-26T07:06:46.786Z,10.05
2017-03-26T07:08:00.192Z,9.94
2017-03-26T07:09:14.075Z,9.99
2017-03-26T07:10:28.077Z,9.9
2017-03-26T07:11:41.702Z,9.99
2017-03-26T07:12:55.097Z,10
2017-03-26T07:14:09.029Z,10.06
2017-03-26T07:15:22.528Z,10.12
2017-03-26T07:16:37.463Z,10.03
2017-03-26T07:17:51.128Z,10.06
2017-03-26T07:19:04.997Z,10.06
2017-03-26T07:20:19.087Z,9.99
2017-03-26T07:21:32.924Z,10.05
2017-03-26T07:22:46.736Z,9.88
2017-03-26T07:24:02.817Z,9.99
2017-03-26T07:25:16.488Z,9.94
2017-03-26T07:26:30.371Z,9.92
2017-03-26T07:27:47.226Z,9.88
2017-03-26T07:29:05.386Z,9.97
2017-03-26T07:30:18.825Z,9.9
2017-03-26T07:31:32.492Z,9.87
2017-03-26T07:32:46.420Z,10.02
2017-03-26T07:33:59.953Z,9.92
2017-03-26T07:35:13.552Z,9.92
2017-03-26T07:36:27.151Z,9.91
2017-03-26T07:37:40.514Z,9.99
2017-03-26T07:38:54.625Z,9.97
2017-03-26T07:40:08.281Z,10.05
2017-03-26T07:41:21.838Z,10.05
2017-03-26T07:42:35.517Z,10.06
2017-03-26T07:43:50.046Z,10.09
2017-03-26T07:45:04.719Z,10.05
2017-03-26T07:46:19.538Z,10.03
2017-03-26T07:47:45.719Z,10.12
2017-03-26T07:49:00.465Z,10.1
2017-03-26T07:50:14.037Z,10.07
2017-03-26T07:51:28.999Z,10.09
2017-03-26T07:52:43.343Z,10.02
2017-03-26T07:53:58.366Z,10.05
2017-03-26T07:55:14.682Z,10.03
2017-03-26T07:56:30.546Z,10.24
2017-03-26T07:57:45.085Z,10.17
2017-03-26T07:58:59.453Z,10.18
2017-03-26T08:00:13.447Z,10.2
2017-03-26T08:01:27.975Z,10.18
2017-03-26T08:02:41.992Z,10.18
2017-03-26T08:03:57.368Z,10.23
2017-03-26T08:05:11.873Z,10.3
2017-03-26T08:06:27.199Z,10.39
2017-03-26T08:07:41.765Z,10.38
2017-03-26T08:08:56.841Z,10.41
2017-03-26T08:10:10.863Z,10.49
2017-03-26T08:11:24.971Z,10.55
2017-03-26T08:12:38.424Z,10.59
2017-03-26T08:13:52.116Z,10.62
2017-03-26T08:15:05.616Z,10.51
2017-03-26T08:16:19.953Z,10.55
2017-03-26T08:17:36.335Z,10.59
2017-03-26T08:18:52.040Z,10.68
2017-03-26T08:20:08.676Z,10.62
2017-03-26T08:21:23.306Z,10.76
2017-03-26T08:22:37.105Z,10.82
2017-03-26T08:23:50.818Z,10.95
2017-03-26T08:25:04.589Z,10.92
2017-03-26T08:26:18.667Z,11.01
2017-03-26T08:27:34.332Z,11.04
2017-03-26T08:28:47.986Z,11.13
2017-03-26T08:30:01.769Z,11.12
2017-03-26T08:31:15.242Z,11.13
2017-03-26T08:32:28.674Z,11.19
2017-03-26T08:33:45.958Z,11.19
2017-03-26T08:35:01.816Z,11.2
2017-03-26T08:36:15.893Z,11.23
2017-03-26T08:37:29.717Z,11.22
2017-03-26T08:38:43.597Z,11.12
2017-03-26T08:39:58.514Z,11.15
2017-03-26T08:41:14.956Z,11.04
2017-03-26T08:42:28.927Z,11.04
2017-03-26T08:43:43.134Z,11.15
2017-03-26T08:44:56.818Z,11.04
2017-03-26T08:46:12.864Z,11.07
2017-03-26T08:47:27.601Z,11
2017-03-26T08:48:45.624Z,11.16
2017-03-26T08:49:59.911Z,11.07
2017-03-26T08:51:14.754Z,11
2017-03-26T08:52:29.489Z,10.98
2017-03-26T08:53:45.523Z,10.95
2017-03-26T08:55:01.434Z,11.07
2017-03-26T08:56:16.173Z,11.12
2017-03-26T08:57:30.093Z,11.1
2017-03-26T08:58:44.265Z,11.13
2017-03-26T08:59:58.782Z,11.2
2017-03-26T09:01:12.935Z,11.25
2017-03-26T09:02:27.041Z,11.34
2017-03-26T09:03:40.781Z,11.3
2017-03-26T09:04:54.352Z,11.45
2017-03-26T09:06:08.523Z,11.53
2017-03-26T09:07:22.298Z,11.53
2017-03-26T09:08:36.022Z,11.6
2017-03-26T09:09:49.864Z,11.63
2017-03-26T09:11:03.491Z,11.6
2017-03-26T09:12:18.412Z,11.6
2017-03-26T09:13:34.488Z,11.62
2017-03-26T09:14:48.776Z,11.6
2017-03-26T09:16:02.513Z,11.62
2017-03-26T09:17:16.076Z,11.6
2017-03-26T09:18:29.706Z,11.6
2017-03-26T09:19:43.253Z,11.52
2017-03-26T09:20:56.825Z,11.58
2017-03-26T09:22:36.015Z,11.65
2017-03-26T09:23:49.932Z,11.58
2017-03-26T09:25:03.384Z,11.51
2017-03-26T09:26:17.342Z,11.56
2017-03-26T09:27:30.890Z,11.58
2017-03-26T09:28:44.902Z,11.68
2017-03-26T09:29:59.167Z,11.86
2017-03-26T09:31:12.819Z,12.08
2017-03-26T09:32:30.308Z,12.08
2017-03-26T09:33:44.547Z,12.08
2017-03-26T09:34:58.159Z,12.08
2017-03-26T09:36:11.849Z,11.97
2017-03-26T09:37:25.264Z,11.78
2017-03-26T09:38:38.893Z,11.78
2017-03-26T09:39:52.642Z,12
2017-03-26T09:41:06.288Z,12.14
2017-03-26T09:42:20.240Z,12.32
2017-03-26T09:43:34.005Z,12.3
2017-03-26T09:44:50.150Z,12.26
2017-03-26T09:46:05.287Z,12.3
2017-03-26T09:47:18.833Z,12.44
2017-03-26T09:48:33.101Z,12.48
2017-03-26T09:49:46.981Z,12.45
2017-03-26T09:51:00.845Z,12.44
2017-03-26T09:52:14.701Z,12.61
2017-03-26T09:53:28.685Z,12.54
2017-03-26T09:54:42.463Z,12.65
2017-03-26T09:55:56.214Z,12.54
2017-03-26T09:57:09.811Z,12.37
2017-03-26T09:58:26.344Z,12.57
2017-03-26T09:59:40.523Z,12.53
2017-03-26T10:00:55.443Z,12.47
2017-03-26T10:02:09.497Z,12.5
2017-03-26T10:03:23.022Z,12.62
2017-03-26T10:04:36.589Z,12.61
2017-03-26T10:05:50.487Z,12.66
2017-03-26T10:07:03.826Z,12.73
2017-03-26T10:08:17.595Z,12.75
2017-03-26T10:09:30.920Z,12.9
2017-03-26T10:10:44.403Z,12.87
2017-03-26T10:11:57.733Z,12.69
2017-03-26T10:13:11.358Z,12.75
2017-03-26T10:14:25.018Z,12.87
2017-03-26T10:15:38.522Z,12.94
2017-03-26T10:16:51.956Z,12.87
2017-03-26T10:18:05.785Z,12.8
2017-03-26T10:19:19.120Z,12.72
2017-03-26T10:20:32.651Z,12.48
2017-03-26T10:21:46.063Z,12.54
2017-03-26T10:22:59.643Z,12.68
2017-03-26T10:24:14.276Z,12.91
2017-03-26T10:25:31.073Z,13.01
2017-03-26T10:26:50.640Z,12.98
2017-03-26T10:28:23.303Z,12.99
2017-03-26T10:29:40.771Z,13.02
2017-03-26T10:30:54.441Z,13.03
2017-03-26T10:32:08.168Z,13.06
2017-03-26T10:33:21.959Z,13.11
2017-03-26T10:34:36.946Z,13.13
2017-03-26T10:35:50.486Z,13.24
2017-03-26T10:37:04.180Z,13.36
2017-03-26T10:38:18.091Z,13.17
2017-03-26T10:39:31.585Z,13.21
2017-03-26T10:40:46.002Z,13.37
2017-03-26T10:42:02.273Z,13.27
2017-03-26T10:43:38.106Z,13.23
2017-03-26T10:44:51.904Z,13.17
2017-03-26T10:46:05.924Z,13.26
2017-03-26T10:47:19.498Z,13.31
2017-03-26T10:48:32.839Z,13.27
2017-03-26T10:49:46.322Z,13.37
2017-03-26T10:50:59.827Z,13.4
2017-03-26T10:52:13.836Z,13.31
2017-03-26T10:53:27.454Z,13.36
2017-03-26T10:54:41.391Z,13.24
2017-03-26T10:55:55.199Z,13.43
2017-03-26T10:57:08.881Z,13.37
2017-03-26T10:58:22.953Z,13.45
2017-03-26T10:59:37.010Z,13.43
2017-03-26T11:00:52.214Z,13.55
2017-03-26T11:02:06.196Z,13.61
2017-03-26T11:03:19.955Z,13.73
2017-03-26T11:04:34.105Z,13.67
2017-03-26T11:05:47.561Z,13.42
2017-03-26T11:07:01.292Z,13.47
2017-03-26T11:08:14.998Z,13.45
2017-03-26T11:09:29.111Z,13.54
2017-03-26T11:10:43.344Z,13.55
2017-03-26T11:11:57.446Z,13.54
2017-03-26T11:13:11.119Z,13.61
2017-03-26T11:14:25.371Z,13.6
2017-03-26T11:15:40.932Z,13.78
2017-03-26T11:16:54.840Z,13.71
2017-03-26T11:18:08.966Z,13.73
2017-03-26T11:19:22.770Z,13.76
2017-03-26T11:20:36.243Z,13.64
2017-03-26T11:21:50.426Z,13.75
2017-03-26T11:23:04.200Z,13.71
2017-03-26T11:24:18.018Z,13.71
2017-03-26T11:25:31.400Z,13.8
2017-03-26T11:26:45.317Z,13.91
2017-03-26T11:27:58.774Z,13.83
2017-03-26T11:29:12.528Z,13.85
2017-03-26T11:30:25.869Z,13.78
2017-03-26T11:31:39.296Z,13.79
2017-03-26T11:32:52.976Z,13.86
2017-03-26T11:34:06.450Z,13.8
2017-03-26T11:35:20.724Z,13.83
2017-03-26T11:36:34.200Z,13.75
2017-03-26T11:37:47.517Z,13.75
2017-03-26T11:39:01.120Z,13.85
2017-03-26T11:40:14.759Z,13.94
2017-03-26T11:41:29.301Z,14.08
2017-03-26T11:42:42.812Z,14.11
2017-03-26T11:43:56.651Z,14.13
2017-03-26T11:45:10.048Z,14.28
2017-03-26T11:46:24.177Z,14.28
2017-03-26T11:47:38.272Z,14.51
2017-03-26T11:48:52.181Z,14.45
2017-03-26T11:50:05.848Z,14.41
2017-03-26T11:51:19.295Z,14.53
2017-03-26T11:52:32.620Z,14.4
2017-03-26T11:53:46.362Z,14.33
2017-03-26T11:54:59.715Z,14.36
2017-03-26T11:56:13.530Z,14.33
2017-03-26T11:57:26.888Z,14.37
2017-03-26T11:58:40.356Z,14.49
2017-03-26T11:59:54.069Z,14.44
2017-03-26T12:01:07.933Z,14.43
2017-03-26T12:02:21.405Z,14.43
2017-03-26T12:03:35.304Z,14.43
2017-03-26T12:04:49.127Z,14.4
2017-03-26T12:06:03.286Z,14.55
2017-03-26T12:07:17.322Z,14.63
2017-03-26T12:08:30.841Z,14.53
2017-03-26T12:09:44.352Z,14.55
2017-03-26T12:10:57.922Z,14.68
2017-03-26T12:12:11.634Z,14.7
2017-03-26T12:13:26.677Z,14.82
2017-03-26T12:14:40.412Z,14.79
2017-03-26T12:15:54.299Z,14.81
2017-03-26T12:17:08.431Z,14.77
2017-03-26T12:18:22.220Z,14.66
2017-03-26T12:19:35.882Z,14.68
2017-03-26T12:20:49.819Z,14.73
2017-03-26T12:22:03.492Z,14.85
2017-03-26T12:23:17.054Z,14.85
2017-03-26T12:24:30.745Z,14.81
2017-03-26T12:25:44.756Z,15
2017-03-26T12:26:58.162Z,15.04
2017-03-26T12:29:18.220Z,15.25
2017-03-26T12:30:37.242Z,15.15
2017-03-26T12:31:50.687Z,15.07
2017-03-26T12:33:06.480Z,15.1
2017-03-26T12:34:20.284Z,15.05
2017-03-26T12:35:34.029Z,14.94
2017-03-26T12:36:47.569Z,15
2017-03-26T12:38:01.097Z,15
2017-03-26T12:39:14.520Z,14.96
2017-03-26T12:40:27.998Z,14.89
2017-03-26T12:41:41.485Z,14.97
2017-03-26T12:42:55.301Z,15.07
2017-03-26T12:44:08.708Z,15.22
2017-03-26T12:45:22.474Z,15.26
2017-03-26T12:46:36.105Z,15.35
2017-03-26T12:47:50.039Z,15.48
2017-03-26T12:49:03.760Z,15.47
2017-03-26T12:50:17.553Z,15.54
2017-03-26T12:51:31.030Z,15.48
2017-03-26T12:52:44.784Z,15.51
2017-03-26T12:53:58.776Z,15.48
2017-03-26T12:55:12.205Z,15.39
2017-03-26T12:56:25.598Z,15.26
2017-03-26T12:57:39.548Z,15.26
2017-03-26T12:58:52.961Z,15.27
2017-03-26T13:00:22.061Z,15.26
2017-03-26T13:01:35.393Z,15.33
2017-03-26T13:02:48.959Z,15.36
2017-03-26T13:04:02.869Z,15.6
2017-03-26T13:05:16.287Z,15.73
2017-03-26T13:06:29.988Z,15.76
2017-03-26T13:07:43.963Z,15.73
2017-03-26T13:08:57.996Z,15.7
2017-03-26T13:10:11.493Z,15.75
2017-03-26T13:11:24.877Z,15.78
2017-03-26T13:12:38.307Z,15.73
2017-03-26T13:13:51.642Z,15.66
2017-03-26T13:15:06.269Z,15.73
2017-03-26T13:16:20.944Z,15.55
2017-03-26T13:17:34.731Z,15.54
2017-03-26T13:18:48.784Z,15.54
2017-03-26T13:20:02.822Z,15.73
2017-03-26T13:21:16.176Z,15.85
2017-03-26T13:22:29.837Z,15.84
2017-03-26T13:23:43.526Z,15.84
2017-03-26T13:24:57.931Z,15.84
2017-03-26T13:26:11.902Z,15.87
2017-03-26T13:27:25.386Z,15.87
2017-03-26T13:28:39.089Z,15.83
2017-03-26T13:29:52.573Z,15.78
2017-03-26T13:31:06.129Z,15.8
2017-03-26T13:32:19.645Z,15.84
2017-03-26T13:33:33.625Z,15.84
2017-03-26T13:34:48.326Z,15.76
2017-03-26T13:36:02.091Z,15.96
2017-03-26T13:37:15.636Z,16
2017-03-26T13:38:29.056Z,15.76
2017-03-26T13:39:42.603Z,15.96
2017-03-26T13:40:56.908Z,15.91
2017-03-26T13:42:11.009Z,15.94
2017-03-26T13:43:25.056Z,15.94
2017-03-26T13:44:39.175Z,16.09
2017-03-26T13:45:52.567Z,16.22
2017-03-26T13:47:06.232Z,16.1
2017-03-26T13:48:19.598Z,15.99
2017-03-26T13:49:35.668Z,16
2017-03-26T13:50:49.116Z,16
2017-03-26T13:52:03.270Z,16
2017-03-26T13:53:17.075Z,16.02
2017-03-26T13:54:30.607Z,16.03
2017-03-26T13:55:44.596Z,16.09
2017-03-26T13:56:58.395Z,16.08
2017-03-26T13:58:11.784Z,16.21
2017-03-26T13:59:25.629Z,16.25
2017-03-26T14:00:39.296Z,16.05
2017-03-26T14:01:52.923Z,15.99
2017-03-26T14:03:06.370Z,16.02
2017-03-26T14:04:20.102Z,16.08
2017-03-26T14:05:33.512Z,16.08
2017-03-26T14:06:47.355Z,16.17
2017-03-26T14:08:01.162Z,16.12
2017-03-26T14:09:14.799Z,16.18
2017-03-26T14:10:28.387Z,16.21
2017-03-26T14:11:42.171Z,16.21
2017-03-26T14:12:55.750Z,16.31
2017-03-26T14:14:09.377Z,16.31
2017-03-26T14:15:22.829Z,16.34
2017-03-26T14:16:36.932Z,16.39
2017-03-26T14:17:51.006Z,16.4
2017-03-26T14:19:05.244Z,16.43
2017-03-26T14:20:19.642Z,16.43
2017-03-26T14:21:33.623Z,16.44
2017-03-26T14:22:48.351Z,16.43
2017-03-26T14:24:03.019Z,16.39
2017-03-26T14:25:17.514Z,16.4
2017-03-26T14:26:31.266Z,16.36
2017-03-26T14:27:45.486Z,16.49
2017-03-26T14:29:00.054Z,16.43
2017-03-26T14:30:14.351Z,16.47
2017-03-26T14:31:28.644Z,16.39
2017-03-26T14:32:42.521Z,16.49
2017-03-26T14:33:56.720Z,16.47
2017-03-26T14:35:10.449Z,16.46
2017-03-26T14:36:24.107Z,16.25
2017-03-26T14:37:37.445Z,16.25
2017-03-26T14:38:51.898Z,16.18
2017-03-26T14:40:05.564Z,16.32
2017-03-26T14:41:19.375Z,16.46
2017-03-26T14:42:32.782Z,16.41
2017-03-26T14:43:47.791Z,16.47
2017-03-26T14:45:01.288Z,16.46
2017-03-26T14:46:14.942Z,16.41
2017-03-26T14:47:28.891Z,16.47
2017-03-26T14:48:42.503Z,16.51
2017-03-26T14:49:56.968Z,16.44
2017-03-26T14:51:10.972Z,16.46
2017-03-26T14:52:24.514Z,16.47
2017-03-26T14:53:38.226Z,16.49
2017-03-26T14:54:51.875Z,16.65
2017-03-26T14:56:05.771Z,16.68
2017-03-26T14:57:19.476Z,16.77
2017-03-26T14:58:33.195Z,16.74
2017-03-26T14:59:46.566Z,16.84
2017-03-26T15:01:00.129Z,16.66
2017-03-26T15:02:13.504Z,16.72
2017-03-26T15:03:27.640Z,16.73
2017-03-26T15:04:41.508Z,16.82
2017-03-26T15:05:57.263Z,16.89
2017-03-26T15:07:10.593Z,16.89
2017-03-26T15:08:24.103Z,16.95
2017-03-26T15:09:37.736Z,16.86
2017-03-26T15:10:51.514Z,16.92
2017-03-26T15:12:04.872Z,16.84
2017-03-26T15:13:18.928Z,16.86
2017-03-26T15:14:32.586Z,16.91
2017-03-26T15:16:21.463Z,16.83
2017-03-26T15:18:05.249Z,16.8
2017-03-26T15:19:19.039Z,16.87
2017-03-26T15:20:32.387Z,16.79
2017-03-26T15:21:46.360Z,16.69
2017-03-26T15:22:59.728Z,16.8
2017-03-26T15:24:13.617Z,16.83
2017-03-26T15:25:27.563Z,16.91
2017-03-26T15:26:41.366Z,16.92
2017-03-26T15:27:55.028Z,16.92
2017-03-26T15:29:09.004Z,16.91
2017-03-26T15:30:23.379Z,16.87
2017-03-26T15:31:37.178Z,16.89
2017-03-26T15:32:50.907Z,16.89
2017-03-26T15:34:04.777Z,16.79
2017-03-26T15:35:18.503Z,16.82
2017-03-26T15:36:32.550Z,16.77
2017-03-26T15:37:46.893Z,16.84
2017-03-26T15:39:00.827Z,16.84
2017-03-26T15:40:14.827Z,16.87
2017-03-26T15:41:29.073Z,16.8
2017-03-26T15:42:42.468Z,16.94
2017-03-26T15:43:56.567Z,16.92
2017-03-26T15:45:10.350Z,16.97
2017-03-26T15:46:24.467Z,16.83
2017-03-26T15:47:38.523Z,16.91
2017-03-26T15:48:52.498Z,16.92
2017-03-26T15:50:06.484Z,16.89
2017-03-26T15:51:20.694Z,16.91
2017-03-26T15:52:34.101Z,16.89
2017-03-26T15:53:47.966Z,16.79
2017-03-26T15:55:02.187Z,16.87
2017-03-26T15:56:16.353Z,16.8
2017-03-26T15:57:30.509Z,16.74
2017-03-26T15:58:45.111Z,16.66
2017-03-26T15:59:58.557Z,16.65
2017-03-26T16:01:12.478Z,16.72
2017-03-26T16:02:26.481Z,16.69
2017-03-26T16:03:40.385Z,16.72
2017-03-26T16:04:54.407Z,16.65
2017-03-26T16:06:08.177Z,16.74
2017-03-26T16:07:21.846Z,16.73
2017-03-26T16:08:35.980Z,16.74
2017-03-26T16:09:49.637Z,16.68
2017-03-26T16:12:13.437Z,16.58
2017-03-26T16:13:27.255Z,16.51
2017-03-26T16:14:41.423Z,16.51
2017-03-26T16:15:54.865Z,16.64